José De Luca

Olheiro - Boca Juniors
22 Fev 2027
Segunda-feira
Processo

Personalidade

Adaptabilidade (3) Ambição (15) Controvérsia (20) Lealdade (6) Pressão (18) Profissionalismo (7) Espírito Esportivo (11) Temperamento (12)

Perfil

Estilo de Treinamento Democrático
Licença Continental C
Determinação 15
Gestão de Pessoas 12
Motivação 9
Disciplina 16
Satisfação no Trabalho
50%
Fadiga
0%
Função Olheiro
Salário 23.9K p/s
Contrato 14.03.2029

Desempenho

Comportamento Normal
Eficácia do Treinamento
24%
Desenvolvimento do Jogador
55%
Prevenção de Lesões
40%
Implementação Tática
65%

Eventos Recentes

Avaliou um jogador agora
Participou de uma reunião de recrutamento agora
Recomendou um alvo de transferência agora
Avaliou um jogador agora
Avaliou um jogador agora
Avaliou um jogador agora
Avaliou um jogador agora
Avaliou um jogador 7d atrás

Monitorando agora

120
Jogador Clube Status Habilidade Confiança Observado Última observação Último voto
Maxim De Cuyper Brighton Ativo 138 / 136 40% 2 20.02.2027 -
Noah Sadiki Sunderland Ativo 148 / 153 40% 2 20.02.2027 -
Jayden Bogle Leeds United Ativo 134 / 131 40% 2 20.02.2027 -
Julián Quiñones Al-Qadisiyah Ativo 141 / 143 40% 8 19.02.2027 -
Alexey Batrakov Galatasaray Ativo 143 / 136 40% 3 19.02.2027 -
Kaio Jorge Cruzeiro Ativo 138 / 147 40% 4 19.02.2027 -
Steven Bergwijn Al-Ittihad Ativo 153 / 140 40% 7 17.02.2027 -
Mateo Retegui Al-Qadisiyah Ativo 152 / 158 40% 9 17.02.2027 -
Mateusz Kochalski Qarabag Ativo 138 / 130 40% 2 17.02.2027 -
Mohamed Simakan Al-Nassr Ativo 147 / 139 40% 18 14.02.2027 -
Robin Fellhauer FC Augsburg Ativo 142 / 138 40% 2 14.02.2027 -
Tijjani Reijnders Al-Qadisiyah Ativo 162 / 160 40% 1 14.02.2027 -
Kevin Danso Tottenham Ativo 149 / 158 40% 1 07.02.2027 -
Sandi Lovrić Hellas Verona Ativo 137 / 128 40% 1 07.02.2027 -
Pascal Struijk Brighton Ativo 144 / 133 40% 7 06.02.2027 -
Hugo Rincón Athletic Bilbao Ativo 140 / 130 40% 5 06.02.2027 -
İsmail Yüksek Fenerbahce Ativo 141 / 142 40% 4 03.02.2027 -
Kobbie Mainoo Manchester United Ativo 155 / 152 40% 2 03.02.2027 -
Mateus Mané Manchester United Ativo 125 / 137 40% 1 03.02.2027 -
Hayden Hackney Everton Ativo 140 / 136 40% 2 31.01.2027 -
Antonino Gallo Lecce Ativo 131 / 125 40% 1 31.01.2027 -
Roger Ibañez Al-Ahli Ativo 148 / 144 40% 12 30.01.2027 -
Maxime Estève RB Leipzig Ativo 138 / 145 40% 3 30.01.2027 -
Michel Ndary Adopo Cagliari Ativo 136 / 125 40% 2 29.01.2027 -
Morten Frendrup Genoa Ativo 146 / 134 40% 2 29.01.2027 -
Vanja Milinković-Savić Napoli Ativo 150 / 154 40% 3 28.01.2027 -
Rico Henry RB Leipzig Ativo 148 / 148 40% 3 25.01.2027 -
Viktor Johansson Stoke City Ativo 126 / 123 40% 2 25.01.2027 -
Théo Hernández Al-Hilal Ativo 161 / 154 40% 15 24.01.2027 -
Enrico Delprato Parma Ativo 131 / 134 40% 2 22.01.2027 -
Thierry Rendall Correia Venezia Ativo 135 / 133 40% 4 21.01.2027 -
Gustavo Mantuan Zenit Ativo 139 / 144 40% 8 20.01.2027 -
Jacob Wright Norwich City Ativo 110 / 127 40% 1 16.01.2027 -
Ezechiel Banzuzi RB Leipzig Ativo 138 / 133 40% 1 15.01.2027 -
Jan Ziółkowski Lecce Ativo 121 / 119 40% 1 15.01.2027 -
Nikola Moro Bologna Ativo 128 / 137 40% 2 14.01.2027 -
Ismaëlo Ganiou RC Lens Ativo 117 / 126 40% 1 14.01.2027 -
Sam Beukema Napoli Ativo 153 / 152 40% 1 11.01.2027 -
Lautaro Vargas Villarreal Ativo 128 / 116 40% 1 07.01.2027 -
Felipe Loyola Pisa Ativo 140 / 135 40% 2 05.01.2027 -
Saël Kumbedi VfL Wolfsburg Ativo 133 / 133 40% 2 05.01.2027 -
Juan Rodríguez Cagliari Ativo 118 / 137 40% 1 03.01.2027 -
Ngal'Ayel Mukau LOSC Lille Ativo 145 / 130 40% 6 01.01.2027 -
Diego Gómez Brighton Ativo 151 / 139 40% 8 31.12.2026 -
Rúben Neves Al-Hilal Ativo 155 / 159 40% 8 26.12.2026 -
Santino Barbi Talleres Ativo 119 / 124 40% 1 21.12.2026 -
Eduardo Salvio Lanús Ativo 119 / 120 76% 1 14.12.2026 Aprovar
Ali Suqrat Al Shaab Ativo 113 / 115 40% 1 12.12.2026 -
Youssef En-Nesyri Al-Ittihad Rejeitado 140 / 133 75% 7 07.12.2026 Rejeitar
Francisco Chissumba Braga Ativo 110 / 117 40% 1 07.12.2026 -
Bruno Ogbus SC Freiburg Ativo 120 / 123 40% 1 07.12.2026 -
Maik Sport Recife Ativo 118 / 130 40% 1 04.12.2026 -
Yoshan Valois Lanús Rejeitado 109 / 122 76% 1 02.12.2026 Rejeitar
Alex Luna Instituto Rejeitado 129 / 139 76% 1 01.12.2026 Rejeitar
Pedro Malheiro Al Wasl Ativo 129 / 127 40% 5 26.11.2026 -
Joane Gadou Borussia Dortmund Ativo 121 / 128 40% 1 18.11.2026 -
Arjan Malić Sturm Graz Ativo 114 / 133 40% 1 16.11.2026 -
Jens Hjertø-Dahl Hull City Ativo 125 / 124 40% 1 15.11.2026 -
Rasmus Kristensen FC Midtjylland Ativo 136 / 147 40% 7 13.11.2026 -
João Muniz Sporting CP Ativo 119 / 118 40% 1 13.11.2026 -
Kacper Potulski Mainz 05 Ativo 121 / 118 40% 1 13.11.2026 -
Diego Costa Krasnodar Rejeitado 136 / 139 40% 2 12.11.2026 Mais informações
Arturo Cipriani Astra Ativo 138 / 139 40% 3 05.11.2026 -
Viery Fiorentina Ativo 112 / 123 40% 1 04.11.2026 -
Abdoulkarim Traoré Al Ain Ativo 129 / 126 40% 1 04.11.2026 -
Matvey Kislyak CSKA Moscow Ativo 129 / 129 40% 2 31.10.2026 -
Emam Ashour Al Ahly Ativo 128 / 141 40% 2 31.10.2026 -
Santiago Sosa Yung Defensa y Justicia Ativo 115 / 123 40% 1 30.10.2026 -
Keisuke Osako Sanfrecce Hiroshima Ativo 132 / 128 40% 7 28.10.2026 -
Karim Coulibaly RC Strasbourg Ativo 109 / 122 40% 1 24.10.2026 -
Mikel Amondarain Bologna Ativo 111 / 123 40% 1 24.10.2026 -
Christos Zafeiris Galatasaray Ativo 143 / 148 40% 1 20.10.2026 -
Marvin Keller Young Boys Ativo 137 / 142 40% 6 16.10.2026 -
Emmanuel Agbadou Besiktas Ativo 129 / 130 40% 3 15.10.2026 -
Gabriel Sara Galatasaray Ativo 145 / 131 40% 2 14.10.2026 -
Mohamed Camara Maccabi Tel Aviv Ativo 130 / 145 40% 1 12.10.2026 -
Josen Escobar Atlético Madrid Ativo 123 / 120 40% 1 09.10.2026 -
Natan Betis Ativo 147 / 148 40% 1 09.10.2026 -
Axel Alderweireld KV Oostende Ativo 137 / 130 40% 3 06.10.2026 -
Sergio Reguilón Inter Miami CF Ativo 131 / 136 40% 3 06.10.2026 -
Pedro Bravo FC Midtjylland Ativo 121 / 115 40% 2 04.10.2026 -
Magnus Bech Riisnæs Bodo/Glimt Ativo 127 / 118 40% 1 03.10.2026 -
Patrick Berg Bodo/Glimt Ativo 136 / 131 40% 3 02.10.2026 -
Jason Januzaj Mouscron Ativo 137 / 150 40% 9 01.10.2026 -
Honest Ahanor Atalanta Ativo 122 / 145 40% 1 25.09.2026 -
Youssef Al Bloushi Al Shabab Ativo 151 / 139 40% 2 20.09.2026 -
Israel Reyes Club America Ativo 138 / 136 40% 2 20.09.2026 -
Taiyo Koga Kashiwa Reysol Ativo 128 / 146 40% 1 18.09.2026 -
Alexander Nübel Besiktas Ativo 152 / 145 40% 2 17.09.2026 -
Mattéo Guendouzi Fenerbahce Ativo 150 / 158 40% 3 15.09.2026 -
Igoh Ogbu Racing Genk Ativo 143 / 147 40% 4 14.09.2026 -
Chris Rigg Sunderland Ativo 119 / 129 40% 2 14.09.2026 -
Luther Phiri SuperSport United Ativo 115 / 124 40% 1 10.09.2026 -
Gedson Fernandes Spartak Moscow Ativo 129 / 141 40% 1 05.09.2026 -
Sergi Domínguez Dinamo Zagreb Ativo 130 / 130 40% 1 05.09.2026 -
Veljko Milosavljević Bournemouth Ativo 137 / 128 40% 1 30.08.2026 -
Harrison Armstrong Everton Ativo 112 / 118 40% 1 29.08.2026 -
Nino Zenit Ativo 143 / 136 40% 2 22.08.2026 -
Samú Al-Nassr Ativo 144 / 158 40% 3 22.08.2026 -
Ignacio Perruzzi San Lorenzo Ativo 119 / 121 40% 1 19.08.2026 -
Dmytro Riznyk Shakhtar Ativo 134 / 147 40% 3 17.08.2026 -
Sergio Quintero La Equidad Ativo 128 / 144 40% 2 15.08.2026 -
Iván Fresneda Sporting CP Ativo 126 / 133 40% 1 15.08.2026 -
Alexis Vega Toluca Ativo 140 / 140 40% 1 14.08.2026 -
Orkun Kökçü Besiktas Ativo 149 / 138 40% 1 13.08.2026 -
Jair Nottingham Forest Ativo 116 / 132 40% 1 13.08.2026 -
Nahuel Herrera Penarol Ativo 124 / 133 40% 1 13.08.2026 -
Tomoki Hayakawa Feyenoord Ativo 126 / 127 40% 2 12.08.2026 -
Deniz Ertaş Konyaspor Ativo 128 / 120 40% 1 12.08.2026 -
Barış Alper Yılmaz Galatasaray Ativo 156 / 158 40% 1 11.08.2026 -
Leandro Barreiro Benfica Ativo 131 / 139 40% 1 10.08.2026 -
Lucas Agazzi Defensor Sporting Ativo 118 / 119 40% 1 08.08.2026 -
Pablo Maffeo Olympiacos Ativo 142 / 134 40% 1 07.08.2026 -
Tomás Araújo Benfica Ativo 140 / 133 40% 1 07.08.2026 -
Mbekezeli Mbokazi Chicago Fire Ativo 119 / 119 40% 1 05.08.2026 -
Elías Báez Atlanta United FC Ativo 119 / 119 40% 1 05.08.2026 -
Sergi Cardona Villarreal Ativo 145 / 153 40% 1 02.08.2026 -
Yves Bissouma Tottenham Ativo 143 / 133 40% 1 01.08.2026 -
Fran García Betis Ativo 145 / 136 40% 1 01.08.2026 -
Antonio Blanco Alavés Ativo 130 / 133 40% 1 01.08.2026 -